sensor_id;sensor_type;location;lat;lon;timestamp;temperature;humidity
21035;DHT22;10676;50.848;3.272;2023-02-28T00:00:24;0.10;99.90
21035;DHT22;10676;50.848;3.272;2023-02-28T00:02:50;0.00;99.90
21035;DHT22;10676;50.848;3.272;2023-02-28T00:05:18;-0.10;99.90
21035;DHT22;10676;50.848;3.272;2023-02-28T00:07:45;-0.10;99.90
21035;DHT22;10676;50.848;3.272;2023-02-28T00:10:13;-0.10;99.90
21035;DHT22;10676;50.848;3.272;2023-02-28T00:12:40;-0.10;99.90
21035;DHT22;10676;50.848;3.272;2023-02-28T00:15:07;-0.10;99.90
21035;DHT22;10676;50.848;3.272;2023-02-28T00:17:33;-0.10;99.90
21035;DHT22;10676;50.848;3.272;2023-02-28T00:19:59;-0.10;99.90
21035;DHT22;10676;50.848;3.272;2023-02-28T00:22:38;-0.10;99.90
21035;DHT22;10676;50.848;3.272;2023-02-28T00:25:04;-0.20;99.90
21035;DHT22;10676;50.848;3.272;2023-02-28T00:27:32;-0.20;99.90
21035;DHT22;10676;50.848;3.272;2023-02-28T00:29:58;-0.30;99.90
21035;DHT22;10676;50.848;3.272;2023-02-28T00:32:24;-0.30;99.90
21035;DHT22;10676;50.848;3.272;2023-02-28T00:34:49;-0.30;99.90
21035;DHT22;10676;50.848;3.272;2023-02-28T00:37:15;-0.30;99.90
21035;DHT22;10676;50.848;3.272;2023-02-28T00:39:41;-0.40;99.90
21035;DHT22;10676;50.848;3.272;2023-02-28T00:42:07;-0.40;99.90
21035;DHT22;10676;50.848;3.272;2023-02-28T00:44:33;-0.30;99.90
21035;DHT22;10676;50.848;3.272;2023-02-28T00:47:00;-0.50;99.90
21035;DHT22;10676;50.848;3.272;2023-02-28T00:49:26;-0.40;99.90
21035;DHT22;10676;50.848;3.272;2023-02-28T00:51:53;-0.50;99.90
21035;DHT22;10676;50.848;3.272;2023-02-28T00:54:19;-0.60;99.90
21035;DHT22;10676;50.848;3.272;2023-02-28T00:56:45;-0.60;99.90
21035;DHT22;10676;50.848;3.272;2023-02-28T00:59:14;-0.60;99.90
21035;DHT22;10676;50.848;3.272;2023-02-28T01:01:40;-0.60;99.90
21035;DHT22;10676;50.848;3.272;2023-02-28T01:04:06;-0.60;99.90
21035;DHT22;10676;50.848;3.272;2023-02-28T01:06:33;-0.60;99.90
21035;DHT22;10676;50.848;3.272;2023-02-28T01:08:59;-0.60;99.90
21035;DHT22;10676;50.848;3.272;2023-02-28T01:11:25;-0.50;99.90
21035;DHT22;10676;50.848;3.272;2023-02-28T01:13:51;-0.50;99.90
21035;DHT22;10676;50.848;3.272;2023-02-28T01:16:17;-0.50;99.90
21035;DHT22;10676;50.848;3.272;2023-02-28T01:18:43;-0.50;99.90
21035;DHT22;10676;50.848;3.272;2023-02-28T01:21:12;-0.50;99.90
21035;DHT22;10676;50.848;3.272;2023-02-28T01:23:39;-0.60;99.90
21035;DHT22;10676;50.848;3.272;2023-02-28T01:26:25;-0.60;99.90
21035;DHT22;10676;50.848;3.272;2023-02-28T01:28:52;-0.50;99.90
21035;DHT22;10676;50.848;3.272;2023-02-28T01:31:19;-0.30;99.90
21035;DHT22;10676;50.848;3.272;2023-02-28T01:33:45;-0.30;99.90
21035;DHT22;10676;50.848;3.272;2023-02-28T01:36:16;-0.40;99.90
21035;DHT22;10676;50.848;3.272;2023-02-28T01:38:43;-0.40;99.90
21035;DHT22;10676;50.848;3.272;2023-02-28T01:41:32;-0.30;99.90
21035;DHT22;10676;50.848;3.272;2023-02-28T01:44:05;-0.30;99.90
21035;DHT22;10676;50.848;3.272;2023-02-28T01:46:33;-0.40;99.90
21035;DHT22;10676;50.848;3.272;2023-02-28T01:51:33;-0.40;99.90
21035;DHT22;10676;50.848;3.272;2023-02-28T01:54:03;-0.40;99.90
21035;DHT22;10676;50.848;3.272;2023-02-28T01:56:34;-0.40;99.90
21035;DHT22;10676;50.848;3.272;2023-02-28T01:59:01;-0.40;99.90
21035;DHT22;10676;50.848;3.272;2023-02-28T02:01:28;-0.40;99.90
21035;DHT22;10676;50.848;3.272;2023-02-28T02:03:59;-0.40;99.90
21035;DHT22;10676;50.848;3.272;2023-02-28T02:06:35;-0.40;99.90
21035;DHT22;10676;50.848;3.272;2023-02-28T02:09:03;-0.50;99.90
21035;DHT22;10676;50.848;3.272;2023-02-28T02:11:28;-0.50;99.90
21035;DHT22;10676;50.848;3.272;2023-02-28T02:16:40;-0.40;99.90
21035;DHT22;10676;50.848;3.272;2023-02-28T02:27:33;-0.60;99.90
21035;DHT22;10676;50.848;3.272;2023-02-28T02:36:33;-0.70;99.90
21035;DHT22;10676;50.848;3.272;2023-02-28T02:41:53;-0.80;99.90
21035;DHT22;10676;50.848;3.272;2023-02-28T02:44:34;-0.80;99.90
21035;DHT22;10676;50.848;3.272;2023-02-28T02:47:08;-0.80;99.90
21035;DHT22;10676;50.848;3.272;2023-02-28T02:49:37;-0.70;99.90
21035;DHT22;10676;50.848;3.272;2023-02-28T02:52:07;-0.70;99.90
21035;DHT22;10676;50.848;3.272;2023-02-28T02:54:40;-0.70;99.90
21035;DHT22;10676;50.848;3.272;2023-02-28T02:57:18;-0.70;99.90
21035;DHT22;10676;50.848;3.272;2023-02-28T02:59:45;-0.60;99.90
21035;DHT22;10676;50.848;3.272;2023-02-28T03:02:12;-0.60;99.90
21035;DHT22;10676;50.848;3.272;2023-02-28T03:04:51;-0.60;99.90
21035;DHT22;10676;50.848;3.272;2023-02-28T03:07:17;-0.70;99.90
21035;DHT22;10676;50.848;3.272;2023-02-28T03:09:54;-0.70;99.90
21035;DHT22;10676;50.848;3.272;2023-02-28T03:12:20;-0.80;99.90
21035;DHT22;10676;50.848;3.272;2023-02-28T03:14:56;-0.90;99.90
21035;DHT22;10676;50.848;3.272;2023-02-28T03:17:45;-0.80;99.90
21035;DHT22;10676;50.848;3.272;2023-02-28T03:20:38;-0.90;99.90
21035;DHT22;10676;50.848;3.272;2023-02-28T03:23:21;-0.90;99.90
21035;DHT22;10676;50.848;3.272;2023-02-28T03:25:59;-0.90;99.90
21035;DHT22;10676;50.848;3.272;2023-02-28T03:31:46;-0.80;99.90
21035;DHT22;10676;50.848;3.272;2023-02-28T03:34:17;-0.80;99.90
21035;DHT22;10676;50.848;3.272;2023-02-28T03:36:48;-0.80;99.90
21035;DHT22;10676;50.848;3.272;2023-02-28T03:39:17;-0.70;99.90
21035;DHT22;10676;50.848;3.272;2023-02-28T03:41:49;-0.70;99.90
21035;DHT22;10676;50.848;3.272;2023-02-28T03:44:24;-0.70;99.90
21035;DHT22;10676;50.848;3.272;2023-02-28T03:46:57;-0.60;99.90
21035;DHT22;10676;50.848;3.272;2023-02-28T03:49:31;-0.60;99.90
21035;DHT22;10676;50.848;3.272;2023-02-28T03:52:01;-0.60;99.90
21035;DHT22;10676;50.848;3.272;2023-02-28T03:54:34;-0.50;99.90
21035;DHT22;10676;50.848;3.272;2023-02-28T03:59:44;-0.50;99.90
21035;DHT22;10676;50.848;3.272;2023-02-28T04:02:10;-0.50;99.90
21035;DHT22;10676;50.848;3.272;2023-02-28T04:04:36;-0.50;99.90
21035;DHT22;10676;50.848;3.272;2023-02-28T04:07:07;-0.50;99.90
21035;DHT22;10676;50.848;3.272;2023-02-28T04:09:33;-0.50;99.90
21035;DHT22;10676;50.848;3.272;2023-02-28T04:11:59;-0.50;99.90
21035;DHT22;10676;50.848;3.272;2023-02-28T04:14:25;-0.50;99.90
21035;DHT22;10676;50.848;3.272;2023-02-28T04:16:52;-0.50;99.90
21035;DHT22;10676;50.848;3.272;2023-02-28T04:19:18;-0.50;99.90
21035;DHT22;10676;50.848;3.272;2023-02-28T04:21:49;-0.50;99.90
21035;DHT22;10676;50.848;3.272;2023-02-28T04:24:24;-0.40;99.90
21035;DHT22;10676;50.848;3.272;2023-02-28T04:26:53;-0.40;99.90
21035;DHT22;10676;50.848;3.272;2023-02-28T04:29:24;-0.30;99.90
21035;DHT22;10676;50.848;3.272;2023-02-28T04:31:50;-0.30;99.90
21035;DHT22;10676;50.848;3.272;2023-02-28T04:34:21;-0.10;99.90
21035;DHT22;10676;50.848;3.272;2023-02-28T04:36:49;-0.10;99.90
21035;DHT22;10676;50.848;3.272;2023-02-28T04:39:21;0.00;99.90
21035;DHT22;10676;50.848;3.272;2023-02-28T04:41:47;0.10;99.90
21035;DHT22;10676;50.848;3.272;2023-02-28T04:44:13;0.20;99.90
21035;DHT22;10676;50.848;3.272;2023-02-28T04:46:43;0.30;99.90
21035;DHT22;10676;50.848;3.272;2023-02-28T04:49:12;0.40;99.90
21035;DHT22;10676;50.848;3.272;2023-02-28T04:51:38;0.50;99.90
21035;DHT22;10676;50.848;3.272;2023-02-28T04:54:04;0.50;99.90
21035;DHT22;10676;50.848;3.272;2023-02-28T04:56:30;0.70;99.90
21035;DHT22;10676;50.848;3.272;2023-02-28T04:58:55;0.80;99.90
21035;DHT22;10676;50.848;3.272;2023-02-28T05:03:50;1.10;99.90
21035;DHT22;10676;50.848;3.272;2023-02-28T05:06:17;1.20;99.90
21035;DHT22;10676;50.848;3.272;2023-02-28T05:08:43;1.30;99.90
21035;DHT22;10676;50.848;3.272;2023-02-28T05:13:45;1.50;99.90
21035;DHT22;10676;50.848;3.272;2023-02-28T05:16:11;1.70;99.90
21035;DHT22;10676;50.848;3.272;2023-02-28T05:18:37;1.70;99.90
21035;DHT22;10676;50.848;3.272;2023-02-28T05:21:03;1.80;99.90
21035;DHT22;10676;50.848;3.272;2023-02-28T05:23:29;1.90;99.90
21035;DHT22;10676;50.848;3.272;2023-02-28T05:25:55;2.00;99.90
21035;DHT22;10676;50.848;3.272;2023-02-28T05:28:21;2.10;99.90
21035;DHT22;10676;50.848;3.272;2023-02-28T05:30:47;2.10;99.90
21035;DHT22;10676;50.848;3.272;2023-02-28T05:33:13;2.20;99.90
21035;DHT22;10676;50.848;3.272;2023-02-28T05:35:40;2.20;99.90
21035;DHT22;10676;50.848;3.272;2023-02-28T05:38:06;2.30;99.90
21035;DHT22;10676;50.848;3.272;2023-02-28T05:40:32;2.30;99.90
21035;DHT22;10676;50.848;3.272;2023-02-28T05:42:57;2.30;99.90
21035;DHT22;10676;50.848;3.272;2023-02-28T05:45:23;2.40;99.90
21035;DHT22;10676;50.848;3.272;2023-02-28T05:47:49;2.40;99.90
21035;DHT22;10676;50.848;3.272;2023-02-28T05:50:18;2.50;99.90
21035;DHT22;10676;50.848;3.272;2023-02-28T05:52:43;2.50;99.90
21035;DHT22;10676;50.848;3.272;2023-02-28T05:55:09;2.50;99.90
21035;DHT22;10676;50.848;3.272;2023-02-28T05:57:35;2.50;99.90
21035;DHT22;10676;50.848;3.272;2023-02-28T06:00:01;2.50;99.90
21035;DHT22;10676;50.848;3.272;2023-02-28T06:02:26;2.50;99.90
21035;DHT22;10676;50.848;3.272;2023-02-28T06:04:53;2.60;99.90
21035;DHT22;10676;50.848;3.272;2023-02-28T06:07:19;2.60;99.90
21035;DHT22;10676;50.848;3.272;2023-02-28T06:09:44;2.60;99.90
21035;DHT22;10676;50.848;3.272;2023-02-28T06:12:10;2.60;99.90
21035;DHT22;10676;50.848;3.272;2023-02-28T06:14:36;2.60;99.90
21035;DHT22;10676;50.848;3.272;2023-02-28T06:17:03;2.60;99.90
21035;DHT22;10676;50.848;3.272;2023-02-28T06:19:29;2.60;99.90
21035;DHT22;10676;50.848;3.272;2023-02-28T06:21:56;2.70;99.90
21035;DHT22;10676;50.848;3.272;2023-02-28T06:24:23;2.70;99.90
21035;DHT22;10676;50.848;3.272;2023-02-28T06:26:50;2.70;99.90
21035;DHT22;10676;50.848;3.272;2023-02-28T06:29:16;2.80;99.90
21035;DHT22;10676;50.848;3.272;2023-02-28T06:31:45;2.80;99.90
21035;DHT22;10676;50.848;3.272;2023-02-28T06:34:12;2.90;99.90
21035;DHT22;10676;50.848;3.272;2023-02-28T06:36:38;2.90;99.90
21035;DHT22;10676;50.848;3.272;2023-02-28T06:39:04;2.90;99.90
21035;DHT22;10676;50.848;3.272;2023-02-28T06:41:30;3.00;99.90
21035;DHT22;10676;50.848;3.272;2023-02-28T06:43:56;3.00;99.90
21035;DHT22;10676;50.848;3.272;2023-02-28T06:46:22;3.10;99.90
21035;DHT22;10676;50.848;3.272;2023-02-28T06:48:48;3.10;99.90
21035;DHT22;10676;50.848;3.272;2023-02-28T06:51:19;3.10;99.90
21035;DHT22;10676;50.848;3.272;2023-02-28T06:53:47;3.20;99.90
21035;DHT22;10676;50.848;3.272;2023-02-28T06:56:14;3.20;99.90
21035;DHT22;10676;50.848;3.272;2023-02-28T06:58:41;3.30;99.90
21035;DHT22;10676;50.848;3.272;2023-02-28T07:01:07;3.30;99.90
21035;DHT22;10676;50.848;3.272;2023-02-28T07:03:35;3.30;99.90
21035;DHT22;10676;50.848;3.272;2023-02-28T07:06:01;3.40;99.90
21035;DHT22;10676;50.848;3.272;2023-02-28T07:08:27;3.40;99.90
21035;DHT22;10676;50.848;3.272;2023-02-28T07:10:56;3.40;99.90
21035;DHT22;10676;50.848;3.272;2023-02-28T07:13:22;3.50;99.90
21035;DHT22;10676;50.848;3.272;2023-02-28T07:16:02;3.50;99.90
21035;DHT22;10676;50.848;3.272;2023-02-28T07:18:28;3.60;99.90
21035;DHT22;10676;50.848;3.272;2023-02-28T07:20:54;3.60;99.90
21035;DHT22;10676;50.848;3.272;2023-02-28T07:23:20;3.70;99.90
21035;DHT22;10676;50.848;3.272;2023-02-28T07:25:46;3.80;99.90
21035;DHT22;10676;50.848;3.272;2023-02-28T07:28:12;3.90;99.90
21035;DHT22;10676;50.848;3.272;2023-02-28T07:30:38;4.00;99.90
21035;DHT22;10676;50.848;3.272;2023-02-28T07:33:04;4.00;99.90
21035;DHT22;10676;50.848;3.272;2023-02-28T07:35:30;4.10;99.90
21035;DHT22;10676;50.848;3.272;2023-02-28T07:37:58;4.30;99.90
21035;DHT22;10676;50.848;3.272;2023-02-28T07:40:24;4.40;99.90
21035;DHT22;10676;50.848;3.272;2023-02-28T07:42:50;4.60;99.90
21035;DHT22;10676;50.848;3.272;2023-02-28T07:45:15;4.70;99.90
21035;DHT22;10676;50.848;3.272;2023-02-28T07:47:42;4.90;99.90
21035;DHT22;10676;50.848;3.272;2023-02-28T07:50:10;5.00;99.90
21035;DHT22;10676;50.848;3.272;2023-02-28T07:52:37;5.10;99.90
21035;DHT22;10676;50.848;3.272;2023-02-28T07:55:03;5.20;99.90
21035;DHT22;10676;50.848;3.272;2023-02-28T07:57:30;5.40;99.90
21035;DHT22;10676;50.848;3.272;2023-02-28T07:59:56;5.50;99.90
21035;DHT22;10676;50.848;3.272;2023-02-28T08:02:21;5.70;99.90
21035;DHT22;10676;50.848;3.272;2023-02-28T08:04:47;5.90;99.90
21035;DHT22;10676;50.848;3.272;2023-02-28T08:07:14;6.10;99.90
21035;DHT22;10676;50.848;3.272;2023-02-28T08:09:40;6.20;99.90
21035;DHT22;10676;50.848;3.272;2023-02-28T08:12:06;6.50;99.90
21035;DHT22;10676;50.848;3.272;2023-02-28T08:14:33;6.70;99.90
21035;DHT22;10676;50.848;3.272;2023-02-28T08:16:58;7.00;99.90
21035;DHT22;10676;50.848;3.272;2023-02-28T08:19:24;7.10;99.90
21035;DHT22;10676;50.848;3.272;2023-02-28T08:21:50;7.40;99.90
21035;DHT22;10676;50.848;3.272;2023-02-28T08:24:15;7.70;99.90
21035;DHT22;10676;50.848;3.272;2023-02-28T08:26:41;8.00;99.90
21035;DHT22;10676;50.848;3.272;2023-02-28T08:29:07;8.10;99.90
21035;DHT22;10676;50.848;3.272;2023-02-28T08:31:32;8.20;99.90
21035;DHT22;10676;50.848;3.272;2023-02-28T08:33:58;8.10;99.90
21035;DHT22;10676;50.848;3.272;2023-02-28T08:36:25;8.00;99.90
21035;DHT22;10676;50.848;3.272;2023-02-28T08:38:52;7.90;99.90
21035;DHT22;10676;50.848;3.272;2023-02-28T08:41:17;7.80;99.90
21035;DHT22;10676;50.848;3.272;2023-02-28T08:43:43;7.70;99.90
21035;DHT22;10676;50.848;3.272;2023-02-28T08:46:12;7.60;99.90
21035;DHT22;10676;50.848;3.272;2023-02-28T08:48:39;7.50;99.90
21035;DHT22;10676;50.848;3.272;2023-02-28T08:51:07;7.40;99.90
21035;DHT22;10676;50.848;3.272;2023-02-28T08:53:35;7.40;99.90
21035;DHT22;10676;50.848;3.272;2023-02-28T08:56:04;7.40;99.90
21035;DHT22;10676;50.848;3.272;2023-02-28T08:58:30;7.40;99.90
21035;DHT22;10676;50.848;3.272;2023-02-28T09:00:56;7.40;99.90
21035;DHT22;10676;50.848;3.272;2023-02-28T09:03:22;7.30;99.90
21035;DHT22;10676;50.848;3.272;2023-02-28T09:05:56;7.30;99.90
21035;DHT22;10676;50.848;3.272;2023-02-28T09:08:23;7.30;99.90
21035;DHT22;10676;50.848;3.272;2023-02-28T09:10:48;7.10;99.90
21035;DHT22;10676;50.848;3.272;2023-02-28T09:13:14;7.00;99.90
21035;DHT22;10676;50.848;3.272;2023-02-28T09:15:40;6.90;99.90
21035;DHT22;10676;50.848;3.272;2023-02-28T09:18:06;6.80;99.90
21035;DHT22;10676;50.848;3.272;2023-02-28T09:20:31;6.60;99.90
21035;DHT22;10676;50.848;3.272;2023-02-28T09:22:57;6.50;99.90
21035;DHT22;10676;50.848;3.272;2023-02-28T09:25:22;6.30;99.90
21035;DHT22;10676;50.848;3.272;2023-02-28T09:27:48;6.30;99.90
21035;DHT22;10676;50.848;3.272;2023-02-28T09:30:14;6.20;99.90
21035;DHT22;10676;50.848;3.272;2023-02-28T09:32:40;6.10;99.90
21035;DHT22;10676;50.848;3.272;2023-02-28T09:35:06;6.10;99.90
21035;DHT22;10676;50.848;3.272;2023-02-28T09:37:32;6.20;99.90
21035;DHT22;10676;50.848;3.272;2023-02-28T09:39:57;6.20;99.90
21035;DHT22;10676;50.848;3.272;2023-02-28T09:42:34;6.30;99.90
21035;DHT22;10676;50.848;3.272;2023-02-28T09:45:10;6.50;99.90
21035;DHT22;10676;50.848;3.272;2023-02-28T09:47:43;6.60;99.90
21035;DHT22;10676;50.848;3.272;2023-02-28T09:52:45;6.80;99.90
21035;DHT22;10676;50.848;3.272;2023-02-28T09:55:36;6.90;99.90
21035;DHT22;10676;50.848;3.272;2023-02-28T09:58:02;7.00;99.90
21035;DHT22;10676;50.848;3.272;2023-02-28T10:00:36;7.00;99.90
21035;DHT22;10676;50.848;3.272;2023-02-28T10:03:28;7.00;99.90
21035;DHT22;10676;50.848;3.272;2023-02-28T10:06:18;7.00;99.90
21035;DHT22;10676;50.848;3.272;2023-02-28T10:09:11;7.00;99.90
21035;DHT22;10676;50.848;3.272;2023-02-28T10:11:40;7.00;99.90
21035;DHT22;10676;50.848;3.272;2023-02-28T10:14:16;7.00;99.90
21035;DHT22;10676;50.848;3.272;2023-02-28T10:16:47;6.90;99.90
21035;DHT22;10676;50.848;3.272;2023-02-28T10:27:16;7.00;99.90
21035;DHT22;10676;50.848;3.272;2023-02-28T10:29:54;7.00;99.90
21035;DHT22;10676;50.848;3.272;2023-02-28T10:32:24;7.00;99.90
21035;DHT22;10676;50.848;3.272;2023-02-28T10:35:01;7.10;99.90
21035;DHT22;10676;50.848;3.272;2023-02-28T10:37:31;7.00;99.90
21035;DHT22;10676;50.848;3.272;2023-02-28T10:39:57;7.00;99.90
21035;DHT22;10676;50.848;3.272;2023-02-28T10:42:27;7.00;99.90
21035;DHT22;10676;50.848;3.272;2023-02-28T10:45:12;7.10;99.90
21035;DHT22;10676;50.848;3.272;2023-02-28T10:48:03;7.20;99.90
21035;DHT22;10676;50.848;3.272;2023-02-28T11:07:20;8.90;99.90
21035;DHT22;10676;50.848;3.272;2023-02-28T11:09:57;9.30;99.90
21035;DHT22;10676;50.848;3.272;2023-02-28T11:15:00;9.60;99.90
21035;DHT22;10676;50.848;3.272;2023-02-28T11:17:29;9.70;99.70
21035;DHT22;10676;50.848;3.272;2023-02-28T11:20:01;9.90;99.40
21035;DHT22;10676;50.848;3.272;2023-02-28T11:22:32;9.90;98.60
21035;DHT22;10676;50.848;3.272;2023-02-28T11:25:07;9.80;98.10
21035;DHT22;10676;50.848;3.272;2023-02-28T11:27:48;9.80;98.20
21035;DHT22;10676;50.848;3.272;2023-02-28T11:32:55;9.80;97.00
21035;DHT22;10676;50.848;3.272;2023-02-28T11:35:35;9.90;96.70
21035;DHT22;10676;50.848;3.272;2023-02-28T11:38:02;10.00;96.70
21035;DHT22;10676;50.848;3.272;2023-02-28T11:40:35;10.30;96.50
21035;DHT22;10676;50.848;3.272;2023-02-28T11:57:03;12.00;91.80
21035;DHT22;10676;50.848;3.272;2023-02-28T12:08:01;12.90;89.50
21035;DHT22;10676;50.848;3.272;2023-02-28T12:10:30;13.10;88.00
21035;DHT22;10676;50.848;3.272;2023-02-28T12:13:14;13.40;86.20
21035;DHT22;10676;50.848;3.272;2023-02-28T12:16:00;13.50;85.10
21035;DHT22;10676;50.848;3.272;2023-02-28T12:21:15;14.00;83.20
21035;DHT22;10676;50.848;3.272;2023-02-28T12:26:30;14.10;80.00
21035;DHT22;10676;50.848;3.272;2023-02-28T12:31:38;13.80;78.20
21035;DHT22;10676;50.848;3.272;2023-02-28T12:34:11;13.50;78.70
21035;DHT22;10676;50.848;3.272;2023-02-28T12:36:39;13.40;78.30
21035;DHT22;10676;50.848;3.272;2023-02-28T12:41:46;13.20;79.40
21035;DHT22;10676;50.848;3.272;2023-02-28T12:44:17;13.10;78.40
21035;DHT22;10676;50.848;3.272;2023-02-28T12:46:49;12.90;78.50
21035;DHT22;10676;50.848;3.272;2023-02-28T12:49:19;12.80;78.70
21035;DHT22;10676;50.848;3.272;2023-02-28T12:51:47;12.80;78.90
21035;DHT22;10676;50.848;3.272;2023-02-28T12:54:29;12.80;78.60
21035;DHT22;10676;50.848;3.272;2023-02-28T12:59:41;12.80;78.90
21035;DHT22;10676;50.848;3.272;2023-02-28T13:04:43;12.90;78.30
21035;DHT22;10676;50.848;3.272;2023-02-28T13:09:56;12.80;75.50
21035;DHT22;10676;50.848;3.272;2023-02-28T13:12:22;12.60;75.20
21035;DHT22;10676;50.848;3.272;2023-02-28T13:14:48;12.50;75.50
21035;DHT22;10676;50.848;3.272;2023-02-28T13:17:23;12.40;74.80
21035;DHT22;10676;50.848;3.272;2023-02-28T13:24:56;12.00;74.10
21035;DHT22;10676;50.848;3.272;2023-02-28T13:29:52;11.70;73.20
21035;DHT22;10676;50.848;3.272;2023-02-28T13:32:34;11.70;73.10
21035;DHT22;10676;50.848;3.272;2023-02-28T13:37:34;11.40;73.20
21035;DHT22;10676;50.848;3.272;2023-02-28T13:58:55;10.50;71.50
21035;DHT22;10676;50.848;3.272;2023-02-28T14:07:20;10.20;71.10
21035;DHT22;10676;50.848;3.272;2023-02-28T14:09:56;10.10;71.50
21035;DHT22;10676;50.848;3.272;2023-02-28T14:18:22;10.00;69.10
21035;DHT22;10676;50.848;3.272;2023-02-28T14:20:50;9.90;69.80
21035;DHT22;10676;50.848;3.272;2023-02-28T14:23:43;9.80;70.50
21035;DHT22;10676;50.848;3.272;2023-02-28T14:31:34;9.80;71.40
21035;DHT22;10676;50.848;3.272;2023-02-28T14:36:45;9.80;70.30
21035;DHT22;10676;50.848;3.272;2023-02-28T14:39:16;9.80;70.80
21035;DHT22;10676;50.848;3.272;2023-02-28T14:41:43;9.80;70.70
21035;DHT22;10676;50.848;3.272;2023-02-28T14:44:27;9.80;70.80
21035;DHT22;10676;50.848;3.272;2023-02-28T14:46:55;9.70;71.00
21035;DHT22;10676;50.848;3.272;2023-02-28T14:49:34;9.70;71.10
21035;DHT22;10676;50.848;3.272;2023-02-28T14:52:17;9.60;71.20
21035;DHT22;10676;50.848;3.272;2023-02-28T14:54:44;9.50;71.60
21035;DHT22;10676;50.848;3.272;2023-02-28T14:57:39;9.50;72.30
21035;DHT22;10676;50.848;3.272;2023-02-28T15:02:53;9.50;71.80
21035;DHT22;10676;50.848;3.272;2023-02-28T15:05:30;9.40;71.80
21035;DHT22;10676;50.848;3.272;2023-02-28T15:08:04;9.40;71.80
21035;DHT22;10676;50.848;3.272;2023-02-28T15:10:30;9.30;71.90
21035;DHT22;10676;50.848;3.272;2023-02-28T15:15:35;9.20;72.50
21035;DHT22;10676;50.848;3.272;2023-02-28T15:18:06;9.20;72.10
21035;DHT22;10676;50.848;3.272;2023-02-28T15:20:33;9.10;72.30
21035;DHT22;10676;50.848;3.272;2023-02-28T15:23:00;9.10;72.30
21035;DHT22;10676;50.848;3.272;2023-02-28T15:25:27;9.10;72.90
21035;DHT22;10676;50.848;3.272;2023-02-28T15:27:54;9.10;73.70
21035;DHT22;10676;50.848;3.272;2023-02-28T15:30:28;9.00;73.70
21035;DHT22;10676;50.848;3.272;2023-02-28T15:33:17;9.10;73.80
21035;DHT22;10676;50.848;3.272;2023-02-28T15:35:43;9.10;73.20
21035;DHT22;10676;50.848;3.272;2023-02-28T15:38:24;9.10;73.30
21035;DHT22;10676;50.848;3.272;2023-02-28T15:40:52;9.00;73.00
21035;DHT22;10676;50.848;3.272;2023-02-28T15:43:32;9.00;73.20
21035;DHT22;10676;50.848;3.272;2023-02-28T15:46:10;9.00;73.00
21035;DHT22;10676;50.848;3.272;2023-02-28T15:48:44;8.90;73.50
21035;DHT22;10676;50.848;3.272;2023-02-28T15:51:39;8.80;73.40
21035;DHT22;10676;50.848;3.272;2023-02-28T15:54:07;8.70;73.80
21035;DHT22;10676;50.848;3.272;2023-02-28T15:56:38;8.60;74.20
21035;DHT22;10676;50.848;3.272;2023-02-28T15:59:15;8.50;73.90
21035;DHT22;10676;50.848;3.272;2023-02-28T16:01:42;8.50;74.50
21035;DHT22;10676;50.848;3.272;2023-02-28T16:04:18;8.50;74.90
21035;DHT22;10676;50.848;3.272;2023-02-28T16:07:00;8.40;74.70
21035;DHT22;10676;50.848;3.272;2023-02-28T16:09:26;8.40;74.60
21035;DHT22;10676;50.848;3.272;2023-02-28T16:11:55;8.40;74.50
21035;DHT22;10676;50.848;3.272;2023-02-28T16:14:24;8.30;74.40
21035;DHT22;10676;50.848;3.272;2023-02-28T16:16:53;8.30;74.40
21035;DHT22;10676;50.848;3.272;2023-02-28T16:19:19;8.20;74.40
21035;DHT22;10676;50.848;3.272;2023-02-28T16:21:46;8.10;74.80
21035;DHT22;10676;50.848;3.272;2023-02-28T16:24:11;8.00;75.00
21035;DHT22;10676;50.848;3.272;2023-02-28T16:26:40;8.00;75.20
21035;DHT22;10676;50.848;3.272;2023-02-28T16:29:08;7.90;75.60
21035;DHT22;10676;50.848;3.272;2023-02-28T16:31:36;7.80;76.10
21035;DHT22;10676;50.848;3.272;2023-02-28T16:34:03;7.80;76.50
21035;DHT22;10676;50.848;3.272;2023-02-28T16:36:29;7.70;76.80
21035;DHT22;10676;50.848;3.272;2023-02-28T16:38:55;7.70;76.90
21035;DHT22;10676;50.848;3.272;2023-02-28T16:41:24;7.60;77.00
21035;DHT22;10676;50.848;3.272;2023-02-28T16:43:53;7.50;76.90
21035;DHT22;10676;50.848;3.272;2023-02-28T16:46:20;7.40;76.90
21035;DHT22;10676;50.848;3.272;2023-02-28T16:48:46;7.40;77.30
21035;DHT22;10676;50.848;3.272;2023-02-28T16:51:17;7.30;77.30
21035;DHT22;10676;50.848;3.272;2023-02-28T16:53:43;7.20;77.50
21035;DHT22;10676;50.848;3.272;2023-02-28T16:56:19;7.10;77.70
21035;DHT22;10676;50.848;3.272;2023-02-28T16:58:46;7.00;78.10
21035;DHT22;10676;50.848;3.272;2023-02-28T17:01:12;6.90;78.50
21035;DHT22;10676;50.848;3.272;2023-02-28T17:03:38;6.80;78.90
21035;DHT22;10676;50.848;3.272;2023-02-28T17:06:08;6.70;79.20
21035;DHT22;10676;50.848;3.272;2023-02-28T17:08:41;6.60;80.40
21035;DHT22;10676;50.848;3.272;2023-02-28T17:11:07;6.50;80.20
21035;DHT22;10676;50.848;3.272;2023-02-28T17:13:33;6.30;80.70
21035;DHT22;10676;50.848;3.272;2023-02-28T17:16:00;6.20;81.10
21035;DHT22;10676;50.848;3.272;2023-02-28T17:18:26;6.10;82.00
21035;DHT22;10676;50.848;3.272;2023-02-28T17:20:54;6.00;82.60
21035;DHT22;10676;50.848;3.272;2023-02-28T17:23:19;5.80;83.00
21035;DHT22;10676;50.848;3.272;2023-02-28T17:25:45;5.60;83.40
21035;DHT22;10676;50.848;3.272;2023-02-28T17:28:19;5.50;84.10
21035;DHT22;10676;50.848;3.272;2023-02-28T17:30:46;5.30;84.50
21035;DHT22;10676;50.848;3.272;2023-02-28T17:33:13;5.10;85.30
21035;DHT22;10676;50.848;3.272;2023-02-28T17:35:38;5.00;85.90
21035;DHT22;10676;50.848;3.272;2023-02-28T17:38:04;4.90;86.30
21035;DHT22;10676;50.848;3.272;2023-02-28T17:40:29;4.80;86.80
21035;DHT22;10676;50.848;3.272;2023-02-28T17:42:55;4.70;87.60
21035;DHT22;10676;50.848;3.272;2023-02-28T17:45:22;4.60;87.80
21035;DHT22;10676;50.848;3.272;2023-02-28T17:47:49;4.50;88.40
21035;DHT22;10676;50.848;3.272;2023-02-28T17:50:20;4.40;88.70
21035;DHT22;10676;50.848;3.272;2023-02-28T17:52:46;4.40;89.30
21035;DHT22;10676;50.848;3.272;2023-02-28T17:55:11;4.20;89.60
21035;DHT22;10676;50.848;3.272;2023-02-28T17:57:37;4.20;89.90
21035;DHT22;10676;50.848;3.272;2023-02-28T18:00:04;4.10;90.00
21035;DHT22;10676;50.848;3.272;2023-02-28T18:02:32;4.00;90.30
21035;DHT22;10676;50.848;3.272;2023-02-28T18:04:58;4.00;90.50
21035;DHT22;10676;50.848;3.272;2023-02-28T18:07:24;3.90;90.60
21035;DHT22;10676;50.848;3.272;2023-02-28T18:09:50;3.80;90.80
21035;DHT22;10676;50.848;3.272;2023-02-28T18:12:16;3.70;91.00
21035;DHT22;10676;50.848;3.272;2023-02-28T18:14:41;3.70;91.20
21035;DHT22;10676;50.848;3.272;2023-02-28T18:17:09;3.60;91.30
21035;DHT22;10676;50.848;3.272;2023-02-28T18:19:37;3.60;91.50
21035;DHT22;10676;50.848;3.272;2023-02-28T18:22:04;3.50;92.00
21035;DHT22;10676;50.848;3.272;2023-02-28T18:24:32;3.40;91.90
21035;DHT22;10676;50.848;3.272;2023-02-28T18:26:58;3.30;92.00
21035;DHT22;10676;50.848;3.272;2023-02-28T18:29:26;3.30;92.20
21035;DHT22;10676;50.848;3.272;2023-02-28T18:31:53;3.30;92.40
21035;DHT22;10676;50.848;3.272;2023-02-28T18:34:19;3.10;92.50